createdAt,value
2023-05-09T00:01:30.986Z,7.57
2023-05-09T00:04:02.898Z,6.90
2023-05-09T00:06:33.247Z,6.82
2023-05-09T00:09:02.676Z,6.55
2023-05-09T00:14:08.830Z,6.35
2023-05-09T00:16:38.522Z,7.38
2023-05-09T00:19:09.961Z,6.20
2023-05-09T00:21:45.103Z,6.40
2023-05-09T00:24:20.486Z,6.18
2023-05-09T00:26:49.890Z,6.85
2023-05-09T00:29:19.272Z,7.03
2023-05-09T00:31:53.962Z,5.80
2023-05-09T00:34:25.169Z,7.63
2023-05-09T00:36:54.381Z,7.80
2023-05-09T00:39:33.860Z,7.10
2023-05-09T00:42:03.246Z,7.70
2023-05-09T00:44:32.531Z,7.38
2023-05-09T00:47:02.127Z,7.07
2023-05-09T00:49:33.333Z,7.57
2023-05-09T00:52:09.464Z,6.30
2023-05-09T00:54:38.718Z,6.68
2023-05-09T00:57:08.102Z,6.32
2023-05-09T00:59:37.769Z,6.07
2023-05-09T01:02:07.174Z,6.22
2023-05-09T01:04:38.641Z,6.88
2023-05-09T01:07:15.852Z,6.72
2023-05-09T01:09:52.759Z,6.80
2023-05-09T01:12:33.446Z,7.25
2023-05-09T01:15:14.620Z,6.45
2023-05-09T01:18:00.201Z,6.60
2023-05-09T01:20:40.175Z,7.05
2023-05-09T01:23:36.997Z,6.45
2023-05-09T01:26:08.186Z,7.13
2023-05-09T01:29:01.268Z,6.90
2023-05-09T01:31:40.463Z,6.70
2023-05-09T01:34:16.978Z,6.50
2023-05-09T01:36:48.859Z,6.55
2023-05-09T01:39:21.966Z,7.38
2023-05-09T01:41:52.517Z,7.18
2023-05-09T01:44:24.352Z,6.80
2023-05-09T01:49:27.311Z,6.57
2023-05-09T01:52:03.217Z,7.18
2023-05-09T01:54:34.286Z,7.00
2023-05-09T01:57:06.246Z,7.60
2023-05-09T01:59:36.661Z,7.22
2023-05-09T02:02:09.700Z,8.20
2023-05-09T02:04:40.732Z,8.23
2023-05-09T02:07:11.467Z,10.52
2023-05-09T02:09:41.006Z,10.43
2023-05-09T02:12:10.632Z,9.00
2023-05-09T02:17:18.959Z,9.35
2023-05-09T02:19:48.495Z,9.25
2023-05-09T02:22:37.852Z,8.48
2023-05-09T02:25:15.011Z,8.25
2023-05-09T02:27:46.227Z,8.63
2023-05-09T02:30:20.758Z,8.57
2023-05-09T02:32:53.843Z,9.20
2023-05-09T02:35:24.697Z,8.90
2023-05-09T02:37:55.194Z,8.90
2023-05-09T02:40:25.191Z,8.13
2023-05-09T02:42:54.477Z,8.85
2023-05-09T02:45:25.027Z,8.57
2023-05-09T02:47:56.374Z,9.80
2023-05-09T02:50:25.843Z,8.63
2023-05-09T02:52:55.137Z,9.13
2023-05-09T02:55:29.856Z,8.32
2023-05-09T02:58:11.999Z,8.13
2023-05-09T03:00:44.608Z,7.50
2023-05-09T03:03:18.807Z,7.80
2023-05-09T03:05:48.789Z,7.78
2023-05-09T03:08:18.270Z,8.52
2023-05-09T03:10:48.381Z,7.90
2023-05-09T03:13:18.560Z,8.20
2023-05-09T03:15:53.091Z,8.32
2023-05-09T03:18:24.725Z,7.90
2023-05-09T03:20:54.618Z,8.40
2023-05-09T03:23:24.155Z,8.45
2023-05-09T03:25:58.748Z,8.35
2023-05-09T03:28:29.898Z,9.13
2023-05-09T03:31:07.919Z,8.30
2023-05-09T03:33:39.204Z,8.45
2023-05-09T03:36:14.655Z,8.32
2023-05-09T03:38:46.685Z,8.23
2023-05-09T03:41:18.348Z,7.35
2023-05-09T03:43:49.767Z,7.68
2023-05-09T03:46:24.230Z,7.88
2023-05-09T03:48:55.881Z,7.97
2023-05-09T03:51:32.007Z,7.45
2023-05-09T03:54:02.807Z,7.05
2023-05-09T03:56:32.297Z,7.70
2023-05-09T03:59:01.787Z,9.27
2023-05-09T04:01:32.047Z,9.25
2023-05-09T04:04:05.502Z,7.97
2023-05-09T04:06:38.445Z,7.90
2023-05-09T04:09:10.922Z,6.82
2023-05-09T04:11:43.553Z,7.18
2023-05-09T04:14:19.887Z,5.95
2023-05-09T04:16:49.405Z,5.95
2023-05-09T04:19:21.039Z,6.40
2023-05-09T04:21:50.876Z,6.38
2023-05-09T04:24:20.660Z,6.70
2023-05-09T04:26:51.103Z,7.15
2023-05-09T04:29:24.163Z,7.03
2023-05-09T04:31:59.637Z,6.82
2023-05-09T04:34:31.919Z,6.60
2023-05-09T04:37:06.286Z,7.00
2023-05-09T04:39:35.773Z,6.25
2023-05-09T04:42:29.205Z,5.75
2023-05-09T04:44:58.605Z,6.07
2023-05-09T04:47:41.365Z,6.53
2023-05-09T04:50:18.489Z,6.00
2023-05-09T04:52:48.369Z,5.93
2023-05-09T04:55:18.238Z,6.75
2023-05-09T04:57:50.945Z,6.00
2023-05-09T05:00:21.100Z,6.75
2023-05-09T05:03:11.716Z,5.50
2023-05-09T05:05:43.513Z,4.45
2023-05-09T05:08:13.939Z,4.70
2023-05-09T05:10:44.619Z,4.30
2023-05-09T05:13:21.203Z,3.88
2023-05-09T05:15:54.518Z,3.50
2023-05-09T05:18:24.346Z,4.30
2023-05-09T05:20:55.754Z,4.47
2023-05-09T05:23:30.873Z,4.10
2023-05-09T05:26:00.333Z,4.13
2023-05-09T05:28:30.632Z,4.38
2023-05-09T05:31:05.226Z,3.20
2023-05-09T05:33:35.225Z,2.90
2023-05-09T05:36:07.791Z,2.35
2023-05-09T05:38:37.211Z,2.70
2023-05-09T05:41:11.905Z,2.90
2023-05-09T05:43:43.523Z,3.28
2023-05-09T05:46:18.871Z,2.70
2023-05-09T05:48:48.257Z,2.30
2023-05-09T05:51:19.521Z,2.85
2023-05-09T05:53:49.196Z,2.20
2023-05-09T05:56:18.546Z,3.10
2023-05-09T05:58:48.239Z,3.20
2023-05-09T06:01:23.320Z,2.53
2023-05-09T06:03:54.571Z,2.70
2023-05-09T06:06:29.011Z,2.55
2023-05-09T06:08:58.698Z,2.25
2023-05-09T06:11:27.900Z,1.63
2023-05-09T06:13:57.265Z,1.88
2023-05-09T06:16:28.265Z,1.27
2023-05-09T06:18:57.768Z,1.40
2023-05-09T06:21:29.041Z,1.08
2023-05-09T06:24:11.804Z,1.42
2023-05-09T06:26:43.917Z,1.40
2023-05-09T06:29:14.825Z,1.38
2023-05-09T06:31:44.227Z,1.10
2023-05-09T06:34:13.607Z,1.30
2023-05-09T06:36:45.160Z,1.20
2023-05-09T06:39:14.565Z,1.23
2023-05-09T06:41:43.781Z,1.20
2023-05-09T06:44:31.787Z,1.10
2023-05-09T06:47:01.431Z,1.30
2023-05-09T06:49:30.656Z,2.42
2023-05-09T06:52:02.781Z,1.20
2023-05-09T06:54:32.586Z,1.40
2023-05-09T06:57:02.614Z,1.13
2023-05-09T06:59:32.663Z,1.27
2023-05-09T07:02:02.185Z,1.20
2023-05-09T07:04:38.496Z,0.85
2023-05-09T07:07:09.852Z,1.02
2023-05-09T07:09:39.437Z,1.20
2023-05-09T07:12:08.982Z,1.63
2023-05-09T07:14:38.257Z,1.00
2023-05-09T07:17:21.982Z,1.08
2023-05-09T07:19:53.013Z,1.40
2023-05-09T07:22:24.505Z,1.40
2023-05-09T07:24:54.002Z,1.15
2023-05-09T07:27:23.175Z,0.90
2023-05-09T07:29:53.255Z,1.17
2023-05-09T07:32:23.648Z,1.20
2023-05-09T07:34:53.132Z,0.90
2023-05-09T07:37:24.468Z,1.10
2023-05-09T07:39:53.827Z,1.20
2023-05-09T07:42:23.009Z,1.20
2023-05-09T07:44:52.571Z,1.10
2023-05-09T07:47:21.845Z,1.08
2023-05-09T07:49:56.368Z,1.10
2023-05-09T07:52:27.700Z,1.10
2023-05-09T07:54:57.263Z,1.00
2023-05-09T07:57:26.608Z,1.08
2023-05-09T07:59:56.196Z,1.10
2023-05-09T08:02:26.053Z,1.20
2023-05-09T08:04:55.578Z,1.45
2023-05-09T08:07:32.117Z,1.60
2023-05-09T08:10:01.693Z,1.05
2023-05-09T08:12:32.230Z,1.58
2023-05-09T08:15:01.582Z,1.83
2023-05-09T08:17:36.819Z,1.60
2023-05-09T08:20:26.038Z,1.20
2023-05-09T08:22:57.605Z,1.15
2023-05-09T08:25:27.039Z,1.15
2023-05-09T08:27:56.724Z,1.30
2023-05-09T08:30:26.764Z,1.20
2023-05-09T08:32:56.060Z,1.20
2023-05-09T08:35:25.395Z,1.05
2023-05-09T08:37:56.786Z,1.40
2023-05-09T08:40:26.290Z,1.48
2023-05-09T08:43:15.510Z,1.58
2023-05-09T08:45:49.107Z,1.20
2023-05-09T08:48:18.825Z,1.40
2023-05-09T08:50:48.122Z,1.15
2023-05-09T08:53:21.255Z,1.33
2023-05-09T09:01:08.685Z,1.70
2023-05-09T09:03:40.114Z,1.52
2023-05-09T09:06:11.461Z,1.50
2023-05-09T09:08:43.680Z,1.35
2023-05-09T09:11:14.225Z,1.40
2023-05-09T09:13:45.814Z,1.38
2023-05-09T09:16:27.146Z,1.30
2023-05-09T09:18:58.933Z,1.52
2023-05-09T09:21:35.294Z,2.03
2023-05-09T09:24:09.832Z,1.58
2023-05-09T09:26:48.414Z,2.08
2023-05-09T09:29:27.525Z,1.73
2023-05-09T09:32:01.943Z,1.75
2023-05-09T09:34:46.335Z,1.63
2023-05-09T09:37:24.098Z,1.35
2023-05-09T09:39:58.845Z,1.30
2023-05-09T09:42:28.390Z,1.98
2023-05-09T09:44:59.372Z,1.40
2023-05-09T09:47:35.426Z,1.35
2023-05-09T09:50:13.917Z,1.27
2023-05-09T09:52:55.550Z,1.50
2023-05-09T09:55:27.388Z,1.20
2023-05-09T10:00:29.658Z,1.55
2023-05-09T10:03:00.634Z,1.42
2023-05-09T10:05:31.440Z,1.65
2023-05-09T10:08:02.224Z,1.40
2023-05-09T10:10:35.258Z,1.50
2023-05-09T10:13:06.104Z,1.70
2023-05-09T10:15:52.212Z,1.33
2023-05-09T10:18:35.799Z,1.50
2023-05-09T10:21:06.603Z,5.13
2023-05-09T10:23:39.634Z,1.58
2023-05-09T10:26:20.710Z,1.58
2023-05-09T10:28:51.831Z,1.50
2023-05-09T10:31:27.194Z,1.45
2023-05-09T10:33:57.622Z,1.50
2023-05-09T10:36:28.170Z,1.55
2023-05-09T10:38:57.945Z,1.80
2023-05-09T10:41:29.376Z,1.63
2023-05-09T10:44:00.167Z,1.60
2023-05-09T10:46:30.184Z,1.48
2023-05-09T10:48:59.966Z,1.40
2023-05-09T10:51:31.112Z,2.10
2023-05-09T10:54:00.549Z,1.77
2023-05-09T10:56:35.521Z,1.73
2023-05-09T10:59:05.387Z,1.52
2023-05-09T11:01:37.412Z,2.50
2023-05-09T11:04:12.698Z,1.73
2023-05-09T11:06:48.951Z,2.00
2023-05-09T11:09:42.018Z,1.80
2023-05-09T11:12:17.244Z,1.73
2023-05-09T11:14:54.328Z,1.60
2023-05-09T11:17:32.435Z,1.67
2023-05-09T11:20:05.110Z,3.83
2023-05-09T11:22:49.582Z,1.90
2023-05-09T11:25:21.507Z,1.80
2023-05-09T11:30:22.940Z,1.83
2023-05-09T11:32:59.756Z,1.75
2023-05-09T11:35:29.984Z,1.80
2023-05-09T11:38:03.671Z,1.90
2023-05-09T11:40:34.249Z,3.70
2023-05-09T11:43:05.672Z,2.00
2023-05-09T11:45:43.939Z,2.10
2023-05-09T11:48:13.392Z,1.80
2023-05-09T11:50:43.035Z,1.70
2023-05-09T11:53:13.028Z,1.92
2023-05-09T11:55:43.445Z,1.65
2023-05-09T11:58:15.776Z,1.52
2023-05-09T12:00:47.036Z,2.92
2023-05-09T12:03:16.899Z,1.85
2023-05-09T12:05:46.946Z,1.98
2023-05-09T12:08:21.489Z,1.83
2023-05-09T12:10:51.152Z,2.00
2023-05-09T12:16:08.862Z,2.08
2023-05-09T12:18:38.269Z,2.10
2023-05-09T12:21:07.806Z,2.30
2023-05-09T12:23:37.286Z,2.00
2023-05-09T12:26:12.277Z,1.98
2023-05-09T12:28:44.609Z,2.00
2023-05-09T12:31:14.384Z,2.17
2023-05-09T12:33:44.033Z,2.05
2023-05-09T12:36:15.787Z,1.90
2023-05-09T12:38:55.450Z,1.95
2023-05-09T12:51:39.672Z,2.40
2023-05-09T12:54:15.737Z,1.92
2023-05-09T12:56:47.186Z,2.40
2023-05-09T12:59:21.971Z,2.20
2023-05-09T13:01:56.395Z,1.92
2023-05-09T13:04:31.138Z,1.83
2023-05-09T13:07:02.475Z,2.40
2023-05-09T13:09:33.702Z,3.15
2023-05-09T13:12:09.743Z,3.08
2023-05-09T13:14:39.217Z,2.90
2023-05-09T13:17:08.684Z,2.60
2023-05-09T13:19:44.144Z,2.60
2023-05-09T13:22:17.078Z,2.15
2023-05-09T13:24:46.550Z,2.05
2023-05-09T13:27:15.931Z,2.10
2023-05-09T13:29:45.516Z,2.35
2023-05-09T13:32:14.866Z,2.03
2023-05-09T13:34:44.402Z,1.98
2023-05-09T13:37:15.767Z,2.10
2023-05-09T13:39:45.231Z,2.13
2023-05-09T13:42:14.560Z,2.10
2023-05-09T13:44:43.896Z,4.70
2023-05-09T13:47:13.252Z,2.78
2023-05-09T13:49:42.592Z,2.95
2023-05-09T13:52:11.910Z,4.70
2023-05-09T13:54:43.358Z,9.38
2023-05-09T13:57:13.434Z,9.02
2023-05-09T13:59:42.999Z,2.95
2023-05-09T14:02:18.527Z,4.32
2023-05-09T14:04:52.922Z,4.10
2023-05-09T14:07:22.408Z,2.05
2023-05-09T14:09:58.749Z,2.30
2023-05-09T14:12:39.201Z,3.10
2023-05-09T14:15:10.657Z,2.47
2023-05-09T14:17:45.479Z,3.00
2023-05-09T14:20:15.898Z,2.58
2023-05-09T14:22:50.530Z,2.35
2023-05-09T14:25:22.363Z,3.03
2023-05-09T14:27:52.040Z,2.22
2023-05-09T14:30:21.624Z,15.82
2023-05-09T14:32:50.976Z,5.85
2023-05-09T14:35:20.779Z,3.92
2023-05-09T14:37:50.333Z,3.88
2023-05-09T14:40:23.003Z,2.00
2023-05-09T14:42:52.461Z,3.63
2023-05-09T14:45:21.780Z,3.65
2023-05-09T14:47:51.319Z,7.97
2023-05-09T14:50:21.922Z,3.97
2023-05-09T14:52:52.004Z,8.05
2023-05-09T14:55:23.637Z,6.53
2023-05-09T14:57:53.268Z,5.82
2023-05-09T15:00:24.028Z,6.32
2023-05-09T15:02:53.983Z,16.23
2023-05-09T15:05:23.606Z,5.57
2023-05-09T15:07:53.035Z,5.68
2023-05-09T15:10:29.415Z,5.80
2023-05-09T15:12:58.880Z,3.33
2023-05-09T15:15:28.772Z,7.28
2023-05-09T15:17:58.383Z,7.38
2023-05-09T15:20:27.775Z,4.72
2023-05-09T15:22:57.140Z,3.00
2023-05-09T15:25:28.515Z,3.75
2023-05-09T15:27:59.035Z,3.80
2023-05-09T15:30:29.130Z,4.85
2023-05-09T15:32:58.882Z,4.28
2023-05-09T15:35:28.696Z,3.33
2023-05-09T15:37:58.059Z,4.68
2023-05-09T15:40:29.861Z,5.28
2023-05-09T15:42:59.585Z,5.00
2023-05-09T15:45:44.846Z,5.72
2023-05-09T15:48:19.485Z,4.32
2023-05-09T15:50:49.243Z,4.95
2023-05-09T15:53:18.607Z,5.47
2023-05-09T15:55:55.139Z,2.95
2023-05-09T15:58:29.613Z,5.82
2023-05-09T16:00:59.191Z,6.60
2023-05-09T16:03:29.104Z,3.80
2023-05-09T16:06:02.648Z,5.15
2023-05-09T16:08:37.689Z,11.55
2023-05-09T16:13:46.220Z,4.68
2023-05-09T16:16:15.840Z,4.30
2023-05-09T16:18:45.180Z,4.40
2023-05-09T16:21:21.300Z,5.53
2023-05-09T16:23:50.753Z,8.45
2023-05-09T16:26:22.175Z,9.35
2023-05-09T16:28:56.769Z,11.75
2023-05-09T16:31:27.620Z,11.75
2023-05-09T16:33:57.941Z,10.05
2023-05-09T16:36:27.307Z,9.90
2023-05-09T16:38:56.882Z,9.50
2023-05-09T16:41:28.747Z,13.40
2023-05-09T16:46:27.737Z,10.57
2023-05-09T16:49:03.329Z,12.35
2023-05-09T16:51:33.222Z,18.42
2023-05-09T16:54:02.721Z,22.77
2023-05-09T16:56:34.272Z,18.90
2023-05-09T16:59:03.783Z,16.45
2023-05-09T17:01:33.466Z,20.90
2023-05-09T17:04:06.194Z,18.27
2023-05-09T17:06:37.543Z,20.88
2023-05-09T17:09:18.418Z,15.98
2023-05-09T17:11:54.763Z,18.95
2023-05-09T17:14:29.628Z,17.70
2023-05-09T17:17:00.105Z,21.30
2023-05-09T17:19:29.755Z,15.75
2023-05-09T17:22:03.867Z,17.52
2023-05-09T17:24:33.351Z,14.52
2023-05-09T17:27:11.010Z,14.52
2023-05-09T17:29:45.585Z,12.40
2023-05-09T17:32:15.874Z,14.32
2023-05-09T17:34:45.197Z,11.25
2023-05-09T17:37:14.469Z,11.60
2023-05-09T17:39:44.050Z,14.45
2023-05-09T17:42:20.760Z,18.55
2023-05-09T17:44:56.147Z,21.02
2023-05-09T17:47:30.723Z,18.05
2023-05-09T17:50:00.561Z,19.67
2023-05-09T17:52:29.857Z,15.85
2023-05-09T17:54:59.273Z,17.02
2023-05-09T17:57:30.753Z,23.20
2023-05-09T18:00:00.361Z,14.95
2023-05-09T18:02:29.826Z,13.48
2023-05-09T18:04:59.626Z,16.60
2023-05-09T18:07:29.008Z,17.27
2023-05-09T18:09:58.282Z,19.25
2023-05-09T18:12:30.870Z,15.07
2023-05-09T18:15:00.838Z,14.93
2023-05-09T18:17:30.155Z,15.52
2023-05-09T18:19:59.468Z,13.60
2023-05-09T18:22:28.796Z,14.40
2023-05-09T18:24:58.197Z,14.43
2023-05-09T18:27:29.428Z,17.85
2023-05-09T18:29:59.035Z,19.58
2023-05-09T18:32:29.510Z,15.73
2023-05-09T18:34:58.913Z,23.15
2023-05-09T18:37:28.299Z,18.77
2023-05-09T18:39:57.732Z,18.17
2023-05-09T18:42:27.745Z,12.52
2023-05-09T18:45:00.546Z,16.80
2023-05-09T18:47:29.926Z,13.48
2023-05-09T18:50:01.721Z,8.38
2023-05-09T18:52:34.392Z,7.93
2023-05-09T18:55:05.852Z,7.68
2023-05-09T18:57:35.450Z,7.45
2023-05-09T19:00:07.864Z,7.72
2023-05-09T19:02:38.080Z,7.95
2023-05-09T19:05:09.093Z,8.52
2023-05-09T19:07:39.357Z,8.60
2023-05-09T19:12:45.813Z,8.68
2023-05-09T19:15:17.142Z,7.00
2023-05-09T19:17:46.702Z,7.18
2023-05-09T19:20:21.300Z,7.50
2023-05-09T19:22:52.368Z,8.70
2023-05-09T19:25:22.411Z,8.45
2023-05-09T19:27:52.414Z,10.27
2023-05-09T19:30:24.058Z,10.13
2023-05-09T19:32:54.590Z,9.82
2023-05-09T19:35:24.305Z,9.88
2023-05-09T19:37:53.704Z,9.15
2023-05-09T19:40:28.481Z,8.93
2023-05-09T19:42:57.944Z,8.90
2023-05-09T19:45:29.548Z,10.20
2023-05-09T19:47:59.099Z,10.98
2023-05-09T19:50:28.541Z,11.07
2023-05-09T19:52:57.998Z,10.23
2023-05-09T19:55:27.591Z,10.73
2023-05-09T19:57:57.136Z,10.52
2023-05-09T20:00:28.437Z,10.40
2023-05-09T20:03:02.935Z,10.10
2023-05-09T20:08:25.168Z,8.27
2023-05-09T20:10:54.840Z,6.97
2023-05-09T20:13:24.214Z,8.00
2023-05-09T20:15:57.242Z,8.93
2023-05-09T20:18:26.700Z,9.27
2023-05-09T20:20:56.523Z,8.10
2023-05-09T20:23:26.000Z,9.02
2023-05-09T20:25:55.452Z,7.78
2023-05-09T20:28:24.917Z,9.00
2023-05-09T20:33:32.212Z,7.97
2023-05-09T20:36:09.265Z,8.70
2023-05-09T20:38:38.723Z,7.15
2023-05-09T20:41:08.043Z,8.05
2023-05-09T20:43:38.076Z,7.72
2023-05-09T20:46:09.274Z,8.18
2023-05-09T20:48:38.793Z,8.52
2023-05-09T20:51:08.170Z,7.20
2023-05-09T20:53:49.470Z,9.02
2023-05-09T20:56:19.273Z,8.15
2023-05-09T20:58:48.525Z,9.02
2023-05-09T21:01:20.403Z,9.00
2023-05-09T21:06:25.257Z,8.98
2023-05-09T21:08:54.598Z,10.07
2023-05-09T21:11:29.177Z,9.27
2023-05-09T21:13:58.546Z,8.27
2023-05-09T21:19:10.585Z,7.68
2023-05-09T21:21:40.299Z,8.25
2023-05-09T21:24:10.679Z,8.15
2023-05-09T21:26:45.039Z,7.90
2023-05-09T21:29:14.384Z,7.55
2023-05-09T21:31:45.801Z,7.50
2023-05-09T21:34:26.477Z,7.40
2023-05-09T21:36:55.864Z,7.28
2023-05-09T21:39:25.391Z,6.95
2023-05-09T21:41:59.950Z,7.47
2023-05-09T21:44:29.954Z,7.45
2023-05-09T21:47:01.460Z,8.13
2023-05-09T21:49:31.073Z,7.38
2023-05-09T21:52:00.740Z,7.07
2023-05-09T21:54:30.181Z,7.03
2023-05-09T21:56:59.320Z,7.47
2023-05-09T21:59:28.953Z,6.53
2023-05-09T22:02:03.257Z,6.70
2023-05-09T22:04:34.609Z,7.25
2023-05-09T22:07:09.080Z,6.97
2023-05-09T22:09:38.639Z,7.13
2023-05-09T22:12:08.603Z,6.88
2023-05-09T22:14:45.371Z,7.78
2023-05-09T22:17:33.156Z,7.05
2023-05-09T22:20:04.854Z,7.68
2023-05-09T22:22:35.105Z,6.47
2023-05-09T22:25:05.415Z,7.43
2023-05-09T22:27:34.890Z,7.30
2023-05-09T22:30:04.199Z,8.43
2023-05-09T22:32:35.784Z,7.80
2023-05-09T22:35:08.013Z,8.48
2023-05-09T22:37:37.540Z,8.48
2023-05-09T22:40:09.588Z,7.35
2023-05-09T22:42:43.988Z,7.28
2023-05-09T22:45:24.592Z,6.60
2023-05-09T22:47:54.061Z,5.93
2023-05-09T22:50:25.426Z,5.20
2023-05-09T22:52:59.875Z,6.07
2023-05-09T22:55:34.175Z,6.10
2023-05-09T22:58:05.306Z,5.53
2023-05-09T23:00:34.596Z,4.93
2023-05-09T23:05:53.112Z,5.25
2023-05-09T23:08:27.663Z,4.78
2023-05-09T23:10:56.958Z,5.00
2023-05-09T23:13:31.483Z,4.93
2023-05-09T23:16:00.674Z,4.78
2023-05-09T23:18:30.769Z,5.70
2023-05-09T23:21:01.917Z,4.85
2023-05-09T23:23:31.325Z,4.93
2023-05-09T23:26:00.585Z,4.75
2023-05-09T23:28:30.080Z,5.40
2023-05-09T23:30:59.322Z,4.78
2023-05-09T23:33:29.175Z,5.05
2023-05-09T23:35:58.931Z,5.07
2023-05-09T23:38:30.318Z,5.30
2023-05-09T23:43:40.528Z,5.32
2023-05-09T23:46:09.901Z,5.20
2023-05-09T23:48:39.368Z,5.45
2023-05-09T23:51:08.793Z,5.07
2023-05-09T23:53:40.121Z,5.00
2023-05-09T23:56:15.138Z,4.53
2023-05-09T23:58:44.581Z,5.40
